Hot Springs, South Dakota
Current Conditions -  °F | °C
As of 9:53 PM on Monday 26 Jan 2015 (Local Time) from KCUT Reporting Station
Clear Clear  
Wind Chill: 46°   Ceiling: Unl
Heat Index: 49°   Visibility: 10mi
Dew Point: 24°   Wind: 7mph
Humidity: 38%   Direction: 260°W
Pressure: 30.08"   Gusts: NA
Location:  43.43°N, 103.47°W
Report Text: KCUT 270453Z AUTO 26006KT 10SM CLR 09/M04 A3008 RMK AO2 SLP154 T00941044
Loading
Personal Weather Stations






























Interactive Weather Map New forecast layout! Learn more

10-Day Weather Forecast

Advertisements
Track Severe Weather on mobile